KMDD/MDD METAR and TAF weather

Enter ICAO airport designator
Station Type Date Time Source
KMDD METAR 2020/01/20 10:15 UTC NOAA

KMDD 201015Z AUTO 00000KT 10SM SCT075 00/M04 A3052 RMK AO2 T00051044


Station Type Date Time Source
KMDD Decoded METAR 2020/01/20 10:15 UTC NOAA

Midland, Midland Airpark, TX, United States (KMDD) 32-02-11N 102-06-03W
Jan 20, 2020 - 05:15 AM EST / 2020.01.20 1015 UTC
Wind: Calm:0
Visibility: 10 mile(s):0
Sky conditions: partly cloudy
Temperature: 32.9 F (0.5 C)
Dew Point: 24.1 F (-4.4 C)
Relative Humidity: 69%
Pressure (altimeter): 30.52 in. Hg (1033 hPa)
ob: KMDD 201015Z AUTO 00000KT 10SM SCT075 00/M04 A3052 RMK AO2 T00051044
cycle: 10

Station Type Date Time Source
KMDD TAF UTC NOAA

Error!

Example: see airport list